Time;durP1;ratioP1;P1;durP2;ratioP2;P2;SDS_P1;SDS_P2;PMS_P1;PMS_P2;Temp;Humidity;BMP_temperature;BMP_pressure;BME280_temperature;BME280_humidity;BME280_pressure;Samples;Min_cycle;Max_cycle;Signal;HPM_P1;HPM_P2
2023/01/13 00:00:31;;;;;;;8.27;3.50;;;;;;;;;;5032665;28;20112;-74
2023/01/13 00:02:57;;;;;;;2.25;1.23;;;;;;;;;;5042570;28;20029;-74
2023/01/13 00:05:24;;;;;;;4.85;2.55;;;;;;;;;;5041304;28;20037;-73
2023/01/13 00:07:50;;;;;;;0.47;0.28;;;;;;;;;;5036486;28;20097;-73
2023/01/13 00:10:16;;;;;;;3.47;1.88;;;;;;;;;;5047505;28;20024;-73
2023/01/13 00:12:42;;;;;;;5.72;3.55;;;;;;;;;;5047814;28;20366;-74
2023/01/13 00:15:09;;;;;;;4.07;2.25;;;;;;;;;;5042220;28;20025;-75
2023/01/13 00:17:35;;;;;;;17.42;9.25;;;;;;;;;;5025225;28;20368;-74
2023/01/13 00:20:02;;;;;;;2.60;1.63;;;;;;;;;;5050683;28;20024;-74
2023/01/13 00:22:28;;;;;;;2.50;0.60;;;;;;;;;;5033997;28;20447;-74
2023/01/13 00:24:54;;;;;;;3.33;2.03;;;;;;;;;;5044012;28;20060;-73
2023/01/13 00:27:22;;;;;;;1.90;0.70;;;;;;;;;;5040458;28;20025;-74
2023/01/13 00:29:48;;;;;;;1.48;0.52;;;;;;;;;;5036290;28;20441;-73
2023/01/13 00:32:14;;;;;;;2.33;1.42;;;;;;;;;;5047008;28;20017;-74
2023/01/13 00:34:40;;;;;;;0.90;0.57;;;;;;;;;;5035513;28;20158;-73
2023/01/13 00:37:07;;;;;;;3.47;1.10;;;;;;;;;;5045808;28;20049;-71
2023/01/13 00:39:33;;;;;;;1.55;0.77;;;;;;;;;;5045953;28;20492;-74
2023/01/13 00:44:43;;;;;;;2.17;0.85;;;;;;;;;;5038905;28;20165;-74
2023/01/13 00:47:09;;;;;;;3.55;1.35;;;;;;;;;;5045176;28;20152;-74
2023/01/13 00:49:35;;;;;;;1.05;0.63;;;;;;;;;;5046126;28;20190;-74
2023/01/13 00:52:01;;;;;;;4.60;2.63;;;;;;;;;;5036904;28;20419;-74
2023/01/13 00:54:27;;;;;;;1.35;0.57;;;;;;;;;;5050262;28;20515;-74
2023/01/13 00:56:53;;;;;;;0.82;0.55;;;;;;;;;;5040115;28;20029;-75
2023/01/13 00:59:19;;;;;;;1.92;0.60;;;;;;;;;;5050270;28;20028;-74
2023/01/13 01:01:45;;;;;;;1.08;0.65;;;;;;;;;;5057535;28;20103;-74
2023/01/13 01:04:11;;;;;;;1.55;0.70;;;;;;;;;;5047135;28;20076;-75
2023/01/13 01:06:37;;;;;;;2.00;1.20;;;;;;;;;;5054928;28;20079;-75
2023/01/13 01:09:03;;;;;;;1.80;0.70;;;;;;;;;;5023541;28;20112;-75
2023/01/13 01:11:30;;;;;;;5.53;3.38;;;;;;;;;;5042008;28;20017;-74
2023/01/13 01:13:57;;;;;;;1.10;0.63;;;;;;;;;;5035863;28;20033;-74
2023/01/13 01:16:24;;;;;;;1.35;0.70;;;;;;;;;;5052225;28;20025;-74
2023/01/13 01:18:50;;;;;;;1.40;0.68;;;;;;;;;;5047624;28;20029;-74
2023/01/13 01:21:17;;;;;;;0.68;0.38;;;;;;;;;;5042949;28;20021;-75
2023/01/13 01:23:43;;;;;;;3.83;2.03;;;;;;;;;;5039971;28;20025;-73
2023/01/13 01:26:13;;;;;;;7.28;3.53;;;;;;;;;;5049636;28;20100;-73
2023/01/13 01:28:39;;;;;;;2.87;1.93;;;;;;;;;;5037659;28;20021;-73
2023/01/13 01:31:16;;;;;;;0.40;0.28;;;;;;;;;;5033831;28;20036;-73
2023/01/13 01:33:42;;;;;;;2.75;0.88;;;;;;;;;;5040760;28;20022;-73
2023/01/13 01:36:09;;;;;;;1.17;0.40;;;;;;;;;;5033020;28;20538;-72
2023/01/13 01:38:35;;;;;;;3.88;1.67;;;;;;;;;;5048821;28;20369;-73
2023/01/13 01:41:01;;;;;;;0.63;0.38;;;;;;;;;;5040509;28;20028;-73
2023/01/13 01:43:58;;;;;;;2.20;0.70;;;;;;;;;;5041807;28;20561;-74
2023/01/13 01:46:30;;;;;;;1.30;0.77;;;;;;;;;;5048556;28;20021;-74
2023/01/13 01:48:59;;;;;;;1.70;1.05;;;;;;;;;;5039634;28;20547;-74
2023/01/13 01:51:26;;;;;;;0.45;0.40;;;;;;;;;;5040916;28;20120;-74
2023/01/13 01:53:54;;;;;;;0.28;0.20;;;;;;;;;;5047493;28;20458;-74
2023/01/13 01:56:20;;;;;;;4.00;2.05;;;;;;;;;;5035282;28;20104;-73
2023/01/13 01:58:49;;;;;;;1.40;0.50;;;;;;;;;;5029667;28;20017;-73
2023/01/13 02:01:16;;;;;;;6.35;2.80;;;;;;;;;;5042147;28;20040;-75
2023/01/13 02:03:44;;;;;;;1.33;0.68;;;;;;;;;;5039244;28;20055;-73
2023/01/13 02:06:10;;;;;;;2.30;0.63;;;;;;;;;;5049068;28;20105;-74
2023/01/13 02:08:37;;;;;;;0.93;0.45;;;;;;;;;;5036557;28;20096;-73
2023/01/13 02:11:03;;;;;;;0.70;0.20;;;;;;;;;;5048168;28;20043;-73
2023/01/13 02:13:29;;;;;;;2.47;1.55;;;;;;;;;;5065983;22;20084;-77
2023/01/13 02:16:05;;;;;;;1.33;0.30;;;;;;;;;;5031333;28;20033;-77
2023/01/13 02:18:51;;;;;;;4.38;2.08;;;;;;;;;;5032253;28;20014;-77
2023/01/13 02:21:46;;;;;;;0.80;0.38;;;;;;;;;;5018720;28;20041;-76
2023/01/13 02:27:42;;;;;;;1.27;0.52;;;;;;;;;;5021360;28;20502;-75
2023/01/13 02:32:56;;;;;;;1.20;1.00;;;;;;;;;;5026233;28;20028;-76
2023/01/13 02:35:25;;;;;;;2.38;0.40;;;;;;;;;;5023146;28;20399;-77
2023/01/13 02:37:52;;;;;;;2.75;1.23;;;;;;;;;;5018927;28;20026;-75
2023/01/13 02:40:18;;;;;;;2.45;0.90;;;;;;;;;;5030520;28;20021;-76
2023/01/13 02:45:55;;;;;;;1.35;0.40;;;;;;;;;;5021338;28;20105;-76
2023/01/13 02:48:22;;;;;;;6.35;3.70;;;;;;;;;;5027969;28;20017;-76
2023/01/13 02:50:52;;;;;;;3.83;1.63;;;;;;;;;;5017763;28;20036;-77
2023/01/13 02:53:40;;;;;;;2.72;1.52;;;;;;;;;;5022335;28;20484;-77
2023/01/13 02:56:07;;;;;;;2.10;0.70;;;;;;;;;;5028160;28;20108;-77
2023/01/13 02:58:35;;;;;;;1.48;0.57;;;;;;;;;;4999091;28;20026;-77
2023/01/13 03:01:01;;;;;;;2.30;1.23;;;;;;;;;;5024049;28;20415;-76
2023/01/13 03:03:27;;;;;;;2.20;0.93;;;;;;;;;;5004908;28;20084;-77
2023/01/13 03:05:58;;;;;;;2.10;0.75;;;;;;;;;;4999326;28;20022;-77
2023/01/13 03:08:30;;;;;;;1.33;1.00;;;;;;;;;;5027728;28;20361;-77
2023/01/13 03:11:04;;;;;;;0.70;0.22;;;;;;;;;;4997952;28;20021;-77
2023/01/13 03:13:33;;;;;;;1.67;0.98;;;;;;;;;;5023418;28;20041;-77
2023/01/13 03:16:02;;;;;;;2.33;1.35;;;;;;;;;;5017286;28;20026;-76
2023/01/13 03:18:43;;;;;;;0.80;0.30;;;;;;;;;;5029199;28;20106;-77
2023/01/13 03:21:33;;;;;;;2.03;0.30;;;;;;;;;;5021388;28;20029;-77
2023/01/13 03:24:17;;;;;;;2.85;1.17;;;;;;;;;;4973959;28;20070;-77
2023/01/13 03:27:13;;;;;;;1.55;1.27;;;;;;;;;;5002398;28;20039;-77
2023/01/13 03:29:50;;;;;;;1.55;0.88;;;;;;;;;;4956670;28;20611;-76
2023/01/13 03:32:22;;;;;;;1.45;1.00;;;;;;;;;;5026261;28;20022;-76
2023/01/13 03:34:51;;;;;;;2.35;1.20;;;;;;;;;;5017443;28;20476;-76
2023/01/13 03:37:19;;;;;;;1.00;0.40;;;;;;;;;;5022162;28;20144;-75
2023/01/13 03:39:48;;;;;;;4.25;2.17;;;;;;;;;;5024839;28;20021;-76
2023/01/13 03:42:18;;;;;;;1.85;0.50;;;;;;;;;;5014889;28;20029;-77
2023/01/13 03:44:47;;;;;;;0.85;0.43;;;;;;;;;;5026953;28;20018;-76
2023/01/13 03:47:21;;;;;;;2.00;0.90;;;;;;;;;;5020298;28;20025;-75
2023/01/13 03:50:00;;;;;;;0.30;0.25;;;;;;;;;;4999697;28;20129;-76
2023/01/13 03:52:34;;;;;;;1.50;1.02;;;;;;;;;;5027262;28;20029;-76
2023/01/13 03:55:02;;;;;;;1.63;0.90;;;;;;;;;;5000652;28;20029;-75
2023/01/13 03:57:31;;;;;;;0.40;0.30;;;;;;;;;;5001588;28;20026;-75
2023/01/13 03:59:58;;;;;;;0.60;0.30;;;;;;;;;;5008511;28;20034;-77
2023/01/13 04:02:43;;;;;;;2.25;1.30;;;;;;;;;;4996630;28;20084;-77
2023/01/13 04:05:09;;;;;;;2.05;0.50;;;;;;;;;;5022609;28;20026;-76
2023/01/13 04:07:40;;;;;;;1.45;0.50;;;;;;;;;;5005682;28;20026;-77
2023/01/13 04:10:08;;;;;;;1.77;0.70;;;;;;;;;;5020941;28;20488;-77
2023/01/13 04:15:23;;;;;;;1.48;0.28;;;;;;;;;;5024870;28;20036;-77
2023/01/13 04:17:49;;;;;;;0.95;0.30;;;;;;;;;;5029845;28;20017;-77
2023/01/13 04:20:16;;;;;;;0.63;0.50;;;;;;;;;;5018588;28;20026;-77
2023/01/13 04:22:42;;;;;;;0.77;0.40;;;;;;;;;;5029939;28;20030;-77
2023/01/13 04:25:08;;;;;;;0.90;0.47;;;;;;;;;;5022973;28;20399;-76
2023/01/13 04:27:34;;;;;;;1.30;0.32;;;;;;;;;;5022233;28;20023;-76
2023/01/13 04:30:00;;;;;;;0.90;0.38;;;;;;;;;;5030182;28;20021;-76
2023/01/13 04:32:26;;;;;;;1.48;0.40;;;;;;;;;;5000134;28;20048;-77
2023/01/13 04:34:53;;;;;;;2.97;1.77;;;;;;;;;;5027920;28;20479;-78
2023/01/13 04:37:19;;;;;;;0.40;0.40;;;;;;;;;;5023785;28;20479;-76
2023/01/13 04:39:45;;;;;;;0.98;0.32;;;;;;;;;;5002761;28;20030;-77
2023/01/13 04:42:11;;;;;;;1.70;0.70;;;;;;;;;;5012867;28;20101;-77
2023/01/13 04:44:37;;;;;;;0.85;0.50;;;;;;;;;;5000453;28;20029;-77
2023/01/13 04:47:04;;;;;;;0.98;0.47;;;;;;;;;;5008291;28;20034;-74
2023/01/13 04:49:30;;;;;;;0.52;0.45;;;;;;;;;;5025302;28;20099;-77
2023/01/13 04:51:56;;;;;;;2.10;0.70;;;;;;;;;;5019039;28;20458;-74
2023/01/13 04:54:22;;;;;;;0.60;0.20;;;;;;;;;;5030296;28;20051;-77
2023/01/13 04:56:48;;;;;;;1.73;0.10;;;;;;;;;;5019713;28;20079;-77
2023/01/13 04:59:14;;;;;;;0.88;0.52;;;;;;;;;;5024250;28;20033;-76
2023/01/13 05:01:40;;;;;;;0.80;0.28;;;;;;;;;;5027310;28;20018;-78
2023/01/13 05:04:06;;;;;;;3.83;2.03;;;;;;;;;;5017559;28;20022;-77
2023/01/13 05:06:33;;;;;;;2.15;1.10;;;;;;;;;;5034100;28;20096;-77
2023/01/13 05:08:59;;;;;;;1.67;0.80;;;;;;;;;;5026707;28;20057;-77
2023/01/13 05:17:02;;;;;;;0.90;0.50;;;;;;;;;;5022442;28;20144;-78
2023/01/13 05:19:29;;;;;;;2.70;0.30;;;;;;;;;;5035078;28;20030;-77
2023/01/13 05:27:25;;;;;;;0.77;0.63;;;;;;;;;;5023344;28;20116;-77
2023/01/13 05:29:51;;;;;;;1.85;0.93;;;;;;;;;;5027838;28;20411;-76
2023/01/13 05:32:17;;;;;;;1.13;0.10;;;;;;;;;;5016561;28;20024;-76
2023/01/13 05:34:43;;;;;;;2.38;1.00;;;;;;;;;;5010287;28;20018;-77
2023/01/13 05:37:12;;;;;;;1.27;0.65;;;;;;;;;;5021430;28;20065;-75
2023/01/13 05:45:10;;;;;;;2.75;1.40;;;;;;;;;;5021150;28;20099;-77
2023/01/13 05:47:36;;;;;;;3.70;2.50;;;;;;;;;;5021048;28;20105;-78
2023/01/13 05:50:03;;;;;;;1.80;0.52;;;;;;;;;;5010829;28;20136;-76
2023/01/13 05:52:29;;;;;;;0.75;0.40;;;;;;;;;;5016213;28;20490;-76
2023/01/13 05:54:55;;;;;;;2.38;1.33;;;;;;;;;;5026248;28;20113;-77
2023/01/13 05:57:21;;;;;;;0.90;0.57;;;;;;;;;;5022472;28;20041;-77
2023/01/13 05:59:47;;;;;;;2.40;1.30;;;;;;;;;;5031428;28;20104;-78
2023/01/13 06:02:13;;;;;;;0.65;0.60;;;;;;;;;;5015917;28;20517;-77
2023/01/13 06:04:39;;;;;;;1.52;0.30;;;;;;;;;;5027750;28;20460;-77
2023/01/13 06:07:05;;;;;;;0.82;0.50;;;;;;;;;;5002538;28;20033;-76
2023/01/13 06:09:31;;;;;;;0.90;0.60;;;;;;;;;;5021037;28;20322;-77
2023/01/13 06:11:57;;;;;;;2.30;0.80;;;;;;;;;;4999225;28;20029;-75
2023/01/13 06:14:23;;;;;;;1.23;0.30;;;;;;;;;;5029180;28;20045;-75
2023/01/13 06:16:49;;;;;;;2.45;0.88;;;;;;;;;;5018995;28;20029;-77
2023/01/13 06:19:15;;;;;;;0.50;0.40;;;;;;;;;;5023501;28;20144;-77
2023/01/13 06:21:43;;;;;;;1.60;0.73;;;;;;;;;;5007481;28;20052;-76
2023/01/13 06:24:10;;;;;;;0.95;0.80;;;;;;;;;;5015560;28;20026;-77
2023/01/13 06:26:37;;;;;;;0.40;0.40;;;;;;;;;;5028163;28;20029;-77
2023/01/13 06:29:04;;;;;;;0.82;0.55;;;;;;;;;;5020232;28;20024;-76
2023/01/13 06:31:30;;;;;;;1.50;0.80;;;;;;;;;;5020889;28;20080;-75
2023/01/13 06:34:00;;;;;;;1.67;0.70;;;;;;;;;;5027237;28;20510;-76
2023/01/13 06:36:28;;;;;;;1.10;0.93;;;;;;;;;;5016073;28;20076;-77
2023/01/13 06:38:57;;;;;;;2.08;0.88;;;;;;;;;;5008004;28;20113;-77
2023/01/13 06:44:08;;;;;;;2.55;1.05;;;;;;;;;;5015995;28;20091;-76
2023/01/13 06:46:35;;;;;;;0.95;0.60;;;;;;;;;;5028703;28;20014;-76
2023/01/13 06:49:01;;;;;;;3.47;1.48;;;;;;;;;;5019441;28;20068;-77
2023/01/13 06:51:27;;;;;;;2.67;1.33;;;;;;;;;;5021382;28;20499;-76
2023/01/13 06:53:53;;;;;;;0.88;0.88;;;;;;;;;;5027429;28;20033;-77
2023/01/13 06:56:19;;;;;;;1.73;0.60;;;;;;;;;;5017254;28;20072;-77
2023/01/13 06:58:45;;;;;;;0.65;0.43;;;;;;;;;;5027870;28;20021;-76
2023/01/13 07:01:11;;;;;;;1.88;0.60;;;;;;;;;;5004685;28;20032;-76
2023/01/13 07:03:37;;;;;;;1.50;0.70;;;;;;;;;;5003578;28;20052;-76
2023/01/13 07:06:03;;;;;;;1.77;0.30;;;;;;;;;;5028617;28;20476;-78
2023/01/13 07:08:32;;;;;;;1.60;1.33;;;;;;;;;;5016815;28;20025;-77
2023/01/13 07:10:58;;;;;;;0.47;0.47;;;;;;;;;;5024912;28;20064;-77
2023/01/13 07:16:09;;;;;;;1.25;0.52;;;;;;;;;;5014897;28;20103;-77
2023/01/13 07:18:35;;;;;;;2.47;0.32;;;;;;;;;;5010083;28;20480;-75
2023/01/13 07:21:03;;;;;;;3.33;1.00;;;;;;;;;;5018817;28;20399;-76
2023/01/13 07:23:30;;;;;;;1.67;1.13;;;;;;;;;;5004357;28;20200;-77
2023/01/13 07:25:56;;;;;;;3.60;0.82;;;;;;;;;;5021569;28;20531;-78
2023/01/13 07:28:23;;;;;;;0.10;0.10;;;;;;;;;;5015001;28;20025;-77
2023/01/13 07:30:49;;;;;;;0.85;0.30;;;;;;;;;;5017178;28;20044;-77
2023/01/13 07:33:15;;;;;;;1.88;0.93;;;;;;;;;;5004003;28;20053;-77
2023/01/13 07:35:41;;;;;;;2.03;0.70;;;;;;;;;;5024290;28;20099;-76
2023/01/13 07:38:07;;;;;;;1.80;1.02;;;;;;;;;;5014528;28;20125;-77
2023/01/13 07:40:33;;;;;;;2.58;1.20;;;;;;;;;;5027378;28;20037;-77
2023/01/13 07:45:44;;;;;;;0.77;0.20;;;;;;;;;;5019893;28;20118;-76
2023/01/13 07:48:10;;;;;;;1.17;0.70;;;;;;;;;;5031565;28;20472;-76
2023/01/13 07:50:36;;;;;;;1.38;1.02;;;;;;;;;;5019262;28;20100;-77
2023/01/13 07:53:02;;;;;;;0.50;0.40;;;;;;;;;;5027734;28;20022;-77
2023/01/13 07:55:28;;;;;;;1.02;0.68;;;;;;;;;;5008575;28;20053;-77
2023/01/13 07:57:54;;;;;;;0.90;0.60;;;;;;;;;;5003178;28;20393;-76
2023/01/13 08:00:20;;;;;;;0.60;0.20;;;;;;;;;;5031940;28;20101;-76
2023/01/13 08:02:46;;;;;;;1.67;0.40;;;;;;;;;;5020978;28;20029;-76
2023/01/13 08:05:12;;;;;;;2.60;1.52;;;;;;;;;;5008424;28;20112;-77
2023/01/13 08:07:39;;;;;;;0.30;0.30;;;;;;;;;;5010142;28;20033;-76
2023/01/13 08:10:05;;;;;;;0.38;0.30;;;;;;;;;;5019542;28;20097;-76
2023/01/13 08:15:17;;;;;;;0.55;0.30;;;;;;;;;;5055293;22;20115;-74
2023/01/13 08:17:43;;;;;;;1.42;0.70;;;;;;;;;;5020459;28;20029;-73
2023/01/13 08:20:09;;;;;;;1.50;1.05;;;;;;;;;;5031377;28;20029;-73
2023/01/13 08:22:35;;;;;;;0.73;0.50;;;;;;;;;;5030519;28;20511;-74
2023/01/13 08:25:01;;;;;;;1.55;0.20;;;;;;;;;;5022124;28;20463;-74
2023/01/13 08:27:27;;;;;;;4.03;1.30;;;;;;;;;;5023540;28;20435;-73
2023/01/13 08:29:53;;;;;;;0.95;0.52;;;;;;;;;;5029327;28;20602;-70
2023/01/13 08:32:19;;;;;;;2.45;0.63;;;;;;;;;;5018277;28;20026;-72
2023/01/13 08:34:45;;;;;;;1.17;0.70;;;;;;;;;;5027518;28;20408;-72
2023/01/13 08:37:11;;;;;;;1.75;0.95;;;;;;;;;;5029463;28;20045;-72
2023/01/13 08:39:37;;;;;;;1.98;1.30;;;;;;;;;;5033927;28;20032;-71
2023/01/13 08:42:04;;;;;;;2.30;1.27;;;;;;;;;;5014809;28;20028;-72
2023/01/13 08:44:31;;;;;;;0.88;0.47;;;;;;;;;;5018901;28;20026;-70
2023/01/13 08:46:57;;;;;;;2.42;1.15;;;;;;;;;;5028369;28;20419;-72
2023/01/13 08:49:23;;;;;;;3.35;1.33;;;;;;;;;;5023454;28;20100;-73
2023/01/13 08:51:50;;;;;;;4.30;2.45;;;;;;;;;;5028628;28;20018;-72
2023/01/13 08:54:16;;;;;;;4.38;1.80;;;;;;;;;;5033700;28;20492;-73
2023/01/13 08:56:43;;;;;;;0.68;0.38;;;;;;;;;;5017370;28;20025;-72
2023/01/13 08:59:13;;;;;;;1.95;0.60;;;;;;;;;;5026224;28;20057;-72
2023/01/13 09:01:39;;;;;;;1.13;0.57;;;;;;;;;;5025007;28;20471;-73
2023/01/13 09:04:06;;;;;;;3.05;0.50;;;;;;;;;;5018580;28;20107;-72
2023/01/13 09:06:32;;;;;;;0.52;0.25;;;;;;;;;;5030467;28;20045;-72
2023/01/13 09:08:59;;;;;;;1.35;0.75;;;;;;;;;;5021655;28;20053;-74
2023/01/13 09:14:22;;;;;;;0.75;0.25;;;;;;;;;;5028824;28;20518;-75
2023/01/13 09:16:49;;;;;;;0.40;0.20;;;;;;;;;;5025706;28;20057;-73
2023/01/13 09:19:15;;;;;;;2.40;0.15;;;;;;;;;;5020870;28;20022;-72
2023/01/13 09:21:41;;;;;;;0.47;0.20;;;;;;;;;;5003774;28;20084;-73
2023/01/13 09:24:07;;;;;;;0.10;0.10;;;;;;;;;;5027855;28;20124;-73
2023/01/13 09:26:33;;;;;;;1.83;0.25;;;;;;;;;;5016886;28;20515;-72
2023/01/13 09:28:59;;;;;;;1.75;0.45;;;;;;;;;;5008648;28;20029;-71
2023/01/13 09:31:25;;;;;;;0.20;0.20;;;;;;;;;;5023243;28;20037;-73
2023/01/13 09:36:36;;;;;;;0.70;0.35;;;;;;;;;;5027385;28;20411;-74
2023/01/13 09:39:02;;;;;;;0.70;0.20;;;;;;;;;;5015789;28;20028;-74
2023/01/13 09:44:18;;;;;;;2.10;0.20;;;;;;;;;;5029129;28;20072;-74
2023/01/13 09:46:51;;;;;;;2.42;0.80;;;;;;;;;;5016097;28;20025;-74
2023/01/13 09:49:19;;;;;;;1.88;0.20;;;;;;;;;;5009669;28;20049;-74
2023/01/13 09:51:48;;;;;;;2.88;0.77;;;;;;;;;;5015021;28;20068;-73
2023/01/13 09:54:15;;;;;;;1.60;0.45;;;;;;;;;;5016319;28;20030;-75
2023/01/13 09:56:41;;;;;;;0.32;0.22;;;;;;;;;;5012561;28;20428;-73
2023/01/13 09:59:10;;;;;;;0.70;0.47;;;;;;;;;;5018749;28;20032;-72
2023/01/13 10:01:41;;;;;;;1.75;0.40;;;;;;;;;;5021353;28;20025;-73
2023/01/13 10:04:11;;;;;;;0.17;0.17;;;;;;;;;;5027748;28;20033;-74
2023/01/13 10:06:40;;;;;;;0.90;0.20;;;;;;;;;;5029360;28;20026;-73
2023/01/13 10:09:12;;;;;;;2.00;0.40;;;;;;;;;;5017935;28;20021;-74
2023/01/13 10:14:34;;;;;;;1.45;0.28;;;;;;;;;;5029359;28;20068;-74
2023/01/13 10:17:03;;;;;;;0.43;0.30;;;;;;;;;;5025654;28;20094;-70
2023/01/13 10:19:37;;;;;;;1.13;0.25;;;;;;;;;;5021726;28;20037;-75
2023/01/13 10:22:03;;;;;;;1.50;0.40;;;;;;;;;;5016969;28;20484;-71
2023/01/13 10:24:48;;;;;;;1.13;0.50;;;;;;;;;;5028125;28;20610;-74
2023/01/13 10:27:20;;;;;;;1.92;0.47;;;;;;;;;;5019597;28;20051;-74
2023/01/13 10:29:46;;;;;;;0.77;0.47;;;;;;;;;;5019848;28;20096;-75
2023/01/13 10:32:12;;;;;;;2.10;0.43;;;;;;;;;;5027869;28;20053;-74
2023/01/13 10:34:56;;;;;;;1.33;0.57;;;;;;;;;;5015229;28;20060;-73
2023/01/13 10:37:26;;;;;;;4.15;0.90;;;;;;;;;;5033412;28;20022;-73
2023/01/13 10:39:54;;;;;;;4.78;0.82;;;;;;;;;;5013397;28;20022;-74
2023/01/13 10:42:22;;;;;;;1.80;0.70;;;;;;;;;;5020182;28;20017;-74
2023/01/13 10:44:50;;;;;;;2.35;1.10;;;;;;;;;;5006416;28;20035;-73
2023/01/13 10:47:20;;;;;;;3.42;1.60;;;;;;;;;;5023363;28;20080;-71
2023/01/13 10:49:58;;;;;;;3.40;1.60;;;;;;;;;;5024565;28;20028;-71
2023/01/13 10:52:26;;;;;;;17.00;8.07;;;;;;;;;;5015570;28;20029;-73
2023/01/13 10:54:53;;;;;;;4.50;1.77;;;;;;;;;;5027469;28;20030;-73
2023/01/13 10:57:20;;;;;;;20.67;10.60;;;;;;;;;;5020599;28;20029;-72
2023/01/13 10:59:47;;;;;;;24.20;12.73;;;;;;;;;;5019836;28;20091;-72
2023/01/13 11:02:19;;;;;;;11.95;5.57;;;;;;;;;;5028334;28;20112;-71
2023/01/13 11:04:54;;;;;;;4.78;2.63;;;;;;;;;;5015945;28;20033;-71
2023/01/13 11:07:38;;;;;;;10.60;4.95;;;;;;;;;;5026069;28;20502;-72
2023/01/13 11:10:05;;;;;;;2.97;1.70;;;;;;;;;;5033671;28;20127;-73
2023/01/13 11:12:34;;;;;;;2.05;1.23;;;;;;;;;;5018069;28;20473;-75
2023/01/13 11:15:02;;;;;;;12.98;6.30;;;;;;;;;;5036071;28;20026;-75
2023/01/13 11:17:39;;;;;;;6.90;3.47;;;;;;;;;;5023091;28;20029;-73
2023/01/13 11:20:11;;;;;;;2.60;0.98;;;;;;;;;;5022935;28;20230;-74
2023/01/13 11:22:39;;;;;;;1.70;1.10;;;;;;;;;;5033581;28;20041;-75
2023/01/13 11:25:09;;;;;;;3.63;1.80;;;;;;;;;;5020322;28;20380;-72
2023/01/13 11:27:47;;;;;;;20.15;7.03;;;;;;;;;;5021101;28;20052;-73
2023/01/13 11:30:22;;;;;;;9.10;3.75;;;;;;;;;;5027687;28;20488;-75
2023/01/13 11:33:03;;;;;;;4.47;1.30;;;;;;;;;;4998337;28;20056;-75
2023/01/13 11:35:31;;;;;;;1.95;1.02;;;;;;;;;;5027409;28;20021;-74
2023/01/13 11:38:00;;;;;;;3.67;1.85;;;;;;;;;;5031082;28;20144;-75
2023/01/13 11:40:38;;;;;;;0.68;0.30;;;;;;;;;;5015021;28;20033;-74
2023/01/13 11:43:10;;;;;;;2.72;0.93;;;;;;;;;;5007177;28;20408;-73
2023/01/13 11:45:40;;;;;;;1.20;0.50;;;;;;;;;;5022842;28;20030;-74
2023/01/13 11:48:11;;;;;;;4.25;2.45;;;;;;;;;;5015994;28;20373;-73
2023/01/13 11:51:00;;;;;;;7.30;3.63;;;;;;;;;;5012755;28;20020;-73
2023/01/13 11:53:26;;;;;;;0.50;0.40;;;;;;;;;;5018939;28;20038;-73
2023/01/13 11:55:52;;;;;;;9.73;4.82;;;;;;;;;;5018830;28;20033;-73
2023/01/13 11:58:19;;;;;;;9.18;2.72;;;;;;;;;;5014117;28;20030;-73
2023/01/13 12:00:47;;;;;;;2.72;0.85;;;;;;;;;;5026893;28;20029;-73
2023/01/13 12:03:16;;;;;;;2.83;0.77;;;;;;;;;;5019256;28;20064;-74
2023/01/13 12:05:46;;;;;;;1.13;0.40;;;;;;;;;;5031040;28;20104;-74
2023/01/13 12:08:26;;;;;;;1.20;0.70;;;;;;;;;;5014918;28;20026;-70
2023/01/13 12:11:05;;;;;;;0.55;0.30;;;;;;;;;;4998202;28;20028;-74
2023/01/13 12:13:37;;;;;;;1.73;0.68;;;;;;;;;;5020368;28;20018;-73
2023/01/13 12:16:03;;;;;;;1.80;0.75;;;;;;;;;;5025529;28;20033;-74
2023/01/13 12:18:48;;;;;;;1.25;0.45;;;;;;;;;;5014179;28;20022;-74
2023/01/13 12:21:34;;;;;;;2.97;1.02;;;;;;;;;;5022508;28;20029;-72
2023/01/13 12:24:05;;;;;;;1.35;0.60;;;;;;;;;;5027404;28;20404;-72
2023/01/13 12:26:31;;;;;;;;;;;;;;;;;;5017623;28;20476;-74
2023/01/13 12:29:04;;;;;;;4.05;0.50;;;;;;;;;;5010468;28;19996;-74
2023/01/13 12:31:31;;;;;;;1.55;0.63;;;;;;;;;;5022733;28;20017;-73
2023/01/13 12:34:00;;;;;;;1.50;0.45;;;;;;;;;;5020792;28;20096;-74
2023/01/13 12:36:29;;;;;;;3.63;0.93;;;;;;;;;;5031852;28;20045;-74
2023/01/13 12:39:18;;;;;;;3.10;0.98;;;;;;;;;;5028496;28;20018;-74
2023/01/13 12:44:31;;;;;;;2.97;0.85;;;;;;;;;;5017539;28;20590;-74
2023/01/13 12:46:58;;;;;;;1.10;0.63;;;;;;;;;;5028479;28;20172;-74
2023/01/13 12:49:28;;;;;;;1.85;0.68;;;;;;;;;;5023379;28;20026;-74
2023/01/13 12:51:54;;;;;;;2.07;0.80;;;;;;;;;;5020783;28;20025;-73
2023/01/13 12:54:38;;;;;;;2.35;0.82;;;;;;;;;;5030599;28;20537;-71
2023/01/13 12:57:23;;;;;;;3.25;1.05;;;;;;;;;;5003064;28;20438;-73
2023/01/13 13:00:04;;;;;;;8.52;1.38;;;;;;;;;;5003497;28;20554;-71
2023/01/13 13:02:30;;;;;;;3.25;0.80;;;;;;;;;;5032211;28;20056;-75
2023/01/13 13:04:58;;;;;;;2.60;0.63;;;;;;;;;;5013855;28;20399;-73
2023/01/13 13:07:30;;;;;;;1.70;0.40;;;;;;;;;;5031066;28;20437;-74
2023/01/13 13:09:56;;;;;;;2.67;1.10;;;;;;;;;;5032293;28;20060;-75
2023/01/13 13:15:24;;;;;;;2.17;0.63;;;;;;;;;;5032911;28;20525;-73
2023/01/13 13:18:03;;;;;;;1.58;0.68;;;;;;;;;;5032984;28;20112;-73
2023/01/13 13:20:49;;;;;;;1.48;0.73;;;;;;;;;;5015034;28;20025;-72
2023/01/13 13:23:51;;;;;;;1.45;0.57;;;;;;;;;;5033808;28;20060;-73
2023/01/13 13:26:24;;;;;;;4.68;1.02;;;;;;;;;;5033816;28;20030;-73
2023/01/13 13:29:08;;;;;;;3.03;1.00;;;;;;;;;;5033867;28;20029;-73
2023/01/13 13:31:43;;;;;;;2.03;0.60;;;;;;;;;;5033609;28;20025;-72
2023/01/13 13:34:09;;;;;;;5.28;0.85;;;;;;;;;;5015209;28;20449;-73
2023/01/13 13:36:48;;;;;;;2.42;0.77;;;;;;;;;;5033673;28;20041;-72
2023/01/13 13:47:45;;;;;;;3.00;0.77;;;;;;;;;;5033427;28;20109;-76
2023/01/13 13:50:13;;;;;;;1.88;0.80;;;;;;;;;;5034106;28;20021;-73
2023/01/13 13:52:41;;;;;;;2.22;0.80;;;;;;;;;;5033887;28;20021;-71
2023/01/13 13:55:18;;;;;;;2.13;1.00;;;;;;;;;;5015187;28;20029;-73
2023/01/13 13:57:46;;;;;;;1.65;0.80;;;;;;;;;;5032576;28;20021;-73
2023/01/13 14:00:12;;;;;;;1.63;1.00;;;;;;;;;;5032665;28;20124;-74
2023/01/13 14:02:38;;;;;;;2.28;0.90;;;;;;;;;;5032969;28;20029;-74
2023/01/13 14:05:18;;;;;;;2.30;0.98;;;;;;;;;;5032909;28;20025;-71
2023/01/13 14:07:46;;;;;;;4.00;0.55;;;;;;;;;;5032628;28;20109;-73
2023/01/13 14:10:20;;;;;;;2.22;0.70;;;;;;;;;;5015132;28;20089;-74
2023/01/13 14:12:46;;;;;;;1.65;0.82;;;;;;;;;;5033322;28;20076;-74
2023/01/13 14:15:26;;;;;;;6.00;1.60;;;;;;;;;;5034196;28;20037;-71
2023/01/13 14:17:52;;;;;;;3.83;0.95;;;;;;;;;;5033194;28;20021;-72
2023/01/13 14:20:18;;;;;;;1.75;1.00;;;;;;;;;;5033205;28;20033;-72
2023/01/13 14:22:52;;;;;;;1.33;0.73;;;;;;;;;;5033431;28;20028;-73
2023/01/13 14:25:29;;;;;;;2.10;0.90;;;;;;;;;;5034294;28;20028;-74
2023/01/13 14:27:55;;;;;;;1.95;1.13;;;;;;;;;;5034368;28;20477;-72
2023/01/13 14:30:24;;;;;;;4.25;1.80;;;;;;;;;;5041379;28;20056;-73
2023/01/13 14:32:50;;;;;;;4.53;1.95;;;;;;;;;;5044485;28;20412;-74
2023/01/13 14:35:17;;;;;;;3.45;1.45;;;;;;;;;;5042118;28;20468;-75
2023/01/13 14:37:54;;;;;;;1.13;0.70;;;;;;;;;;5040645;28;20070;-73
2023/01/13 14:40:35;;;;;;;3.70;0.68;;;;;;;;;;5039208;28;20018;-74
2023/01/13 14:43:09;;;;;;;2.38;1.13;;;;;;;;;;5032382;28;20033;-73
2023/01/13 14:45:36;;;;;;;1.50;0.60;;;;;;;;;;5032568;28;20060;-74
2023/01/13 14:48:02;;;;;;;3.53;0.45;;;;;;;;;;5032106;28;20036;-74
2023/01/13 14:50:32;;;;;;;1.85;0.55;;;;;;;;;;5032368;28;20064;-75
2023/01/13 14:52:59;;;;;;;1.38;0.82;;;;;;;;;;5015522;28;20021;-74
2023/01/13 14:55:28;;;;;;;1.23;0.63;;;;;;;;;;5031614;28;20128;-73
2023/01/13 14:58:14;;;;;;;7.45;0.80;;;;;;;;;;5014152;28;20025;-73
2023/01/13 15:00:40;;;;;;;1.27;0.57;;;;;;;;;;5014762;28;20030;-74
2023/01/13 15:03:07;;;;;;;1.73;0.60;;;;;;;;;;5032751;28;20078;-74
2023/01/13 15:05:34;;;;;;;2.58;0.70;;;;;;;;;;5031782;28;20390;-74
2023/01/13 15:08:10;;;;;;;1.77;0.85;;;;;;;;;;5031190;28;20483;-73
2023/01/13 15:10:40;;;;;;;2.38;0.60;;;;;;;;;;5031706;28;20029;-73
2023/01/13 15:13:07;;;;;;;2.00;0.50;;;;;;;;;;5032145;28;20022;-73
2023/01/13 15:15:37;;;;;;;1.92;0.95;;;;;;;;;;5031830;28;20048;-74
2023/01/13 15:18:13;;;;;;;2.75;0.90;;;;;;;;;;5032044;28;20105;-74
2023/01/13 15:20:40;;;;;;;3.30;1.13;;;;;;;;;;5032072;28;20049;-75
2023/01/13 15:23:06;;;;;;;4.45;0.70;;;;;;;;;;5033148;28;20087;-74
2023/01/13 15:25:33;;;;;;;3.08;0.35;;;;;;;;;;5033095;28;20026;-73
2023/01/13 15:27:59;;;;;;;1.95;0.40;;;;;;;;;;5032485;28;20037;-69
2023/01/13 15:30:26;;;;;;;0.85;0.47;;;;;;;;;;5032447;28;20053;-74
2023/01/13 15:32:54;;;;;;;1.35;0.43;;;;;;;;;;5031534;28;20025;-74
2023/01/13 15:35:20;;;;;;;0.60;0.25;;;;;;;;;;5031622;28;20072;-73
2023/01/13 15:37:47;;;;;;;2.20;0.40;;;;;;;;;;5031509;28;20395;-73
2023/01/13 15:40:14;;;;;;;1.98;0.65;;;;;;;;;;5031396;28;20052;-74
2023/01/13 15:48:10;;;;;;;1.80;0.63;;;;;;;;;;5031354;28;20088;-72
2023/01/13 15:50:36;;;;;;;3.15;1.30;;;;;;;;;;5031275;28;20036;-74
2023/01/13 15:53:02;;;;;;;0.82;0.73;;;;;;;;;;5031401;28;20018;-73
2023/01/13 15:55:28;;;;;;;3.13;1.52;;;;;;;;;;5031320;28;20109;-74
2023/01/13 15:57:54;;;;;;;1.75;0.98;;;;;;;;;;5031134;28;20030;-73
2023/01/13 16:00:21;;;;;;;5.22;1.20;;;;;;;;;;5031334;28;20486;-73
2023/01/13 16:02:48;;;;;;;3.28;1.67;;;;;;;;;;5013719;28;20407;-72
2023/01/13 16:05:14;;;;;;;2.38;1.67;;;;;;;;;;5031215;28;20025;-73
2023/01/13 16:07:40;;;;;;;2.72;2.03;;;;;;;;;;5034702;28;20100;-76